<?xml version="1.0" encoding="UTF-8" standalone="no" ?>
<gpx xmlns="http://www.topografix.com/GPX/1/1" xmlns:xsi="http://www.w3.org/2001/XMLSchema-instance" xsi:schemaLocation="http://www.topografix.com/GPX/1/1 http://www.topografix.com/GPX/1/1/gpx.xsd" version="1.1" creator="VisuGPX - https://www.visugpx.com">
  <metadata>
    <name>Col des Pres Fromage depuis Molines en Queyras et montée vers le mont buchet</name>
    <desc><![CDATA[Montée dans la foret vers le col de pres fromage, puis montée vers le mont buchet]]></desc>
  </metadata>
  <trk>
    <name><![CDATA[2013-01-01 10:22]]></name>
    <desc><![CDATA[<h1>OruxMaps</h1><br /><hr align="center" width="480" style="height: 2px; width: 517px"/><h2>Nom: 2013-01-01 10:22</h2><br /><p>Temps de départ: 01/01/2013 10:22</p><p>Temps d'arrivée: 01/01/2013 16:08</p><p>Distance: 10,4 km (05:43)</p><p>Temps déplacement: 03:01</p><p>Vitesse moyenne: 1,8 km/h</p><p>Vitesse moyenne: 3,4 km/h</p><p>Vitess Max.: 44,3 km/h</p><p>Altitude minimale: 1728 m</p><p>Altitude maximale: 2306 m</p><p>Vitesse d'élévation: 242,7 m/h</p><p>Vitesse de descente: -215,6 m/h</p><p>Gain Altitude: 674 m</p><p>Perte Altitude: -625 m</p><p>Temps d'élévation: 02:46</p><p>Temps de descente: 02:54</p><hr align="center" width="480" style="height: 2px; width: 517px"/>]]></desc>
    <trkseg>
      <trkpt lat="44.73125" lon="6.83989">
        <ele>1728</ele>
        <time>2013-01-01T09:24:23Z</time>
      </trkpt>
      <trkpt lat="44.7311" lon="6.8401">
        <ele>1748.9375</ele>
        <time>2013-01-01T09:24:25Z</time>
      </trkpt>
      <trkpt lat="44.7309" lon="6.84028">
        <ele>1761.6611</ele>
        <time>2013-01-01T09:24:28Z</time>
      </trkpt>
      <trkpt lat="44.73077" lon="6.84059">
        <ele>1763.3093</ele>
        <time>2013-01-01T09:24:30Z</time>
      </trkpt>
      <trkpt lat="44.73069" lon="6.84085">
        <ele>1764.982</ele>
        <time>2013-01-01T09:24:31Z</time>
      </trkpt>
      <trkpt lat="44.73056" lon="6.84127">
        <ele>1769.4274</ele>
        <time>2013-01-01T09:24:33Z</time>
      </trkpt>
      <trkpt lat="44.73046" lon="6.84163">
        <ele>1773.9279</ele>
        <time>2013-01-01T09:24:35Z</time>
      </trkpt>
      <trkpt lat="44.73036" lon="6.84188">
        <ele>1777.522</ele>
        <time>2013-01-01T09:24:37Z</time>
      </trkpt>
      <trkpt lat="44.73022" lon="6.84207">
        <ele>1780.1686</ele>
        <time>2013-01-01T09:24:39Z</time>
      </trkpt>
      <trkpt lat="44.73007" lon="6.84223">
        <ele>1782.5323</ele>
        <time>2013-01-01T09:24:41Z</time>
      </trkpt>
      <trkpt lat="44.72991" lon="6.8424">
        <ele>1784.9869</ele>
        <time>2013-01-01T09:24:43Z</time>
      </trkpt>
      <trkpt lat="44.72976" lon="6.84256">
        <ele>1787.1802</ele>
        <time>2013-01-01T09:24:45Z</time>
      </trkpt>
      <trkpt lat="44.72955" lon="6.84276">
        <ele>1787.8104</ele>
        <time>2013-01-01T09:24:48Z</time>
      </trkpt>
      <trkpt lat="44.72939" lon="6.84292">
        <ele>1786.5919</ele>
        <time>2013-01-01T09:24:51Z</time>
      </trkpt>
      <trkpt lat="44.72923" lon="6.84309">
        <ele>1788.9529</ele>
        <time>2013-01-01T09:24:55Z</time>
      </trkpt>
      <trkpt lat="44.72914" lon="6.84336">
        <ele>1781.5039</ele>
        <time>2013-01-01T09:29:16Z</time>
      </trkpt>
      <trkpt lat="44.72882" lon="6.84294">
        <ele>1795.5509</ele>
        <time>2013-01-01T09:39:37Z</time>
      </trkpt>
      <trkpt lat="44.72864" lon="6.84279">
        <ele>1789.7168</ele>
        <time>2013-01-01T09:39:40Z</time>
      </trkpt>
      <trkpt lat="44.72846" lon="6.84274">
        <ele>1785.6305</ele>
        <time>2013-01-01T09:39:43Z</time>
      </trkpt>
      <trkpt lat="44.72827" lon="6.84275">
        <ele>1786.2347</ele>
        <time>2013-01-01T09:39:47Z</time>
      </trkpt>
      <trkpt lat="44.7281" lon="6.84289">
        <ele>1788.4148</ele>
        <time>2013-01-01T09:39:54Z</time>
      </trkpt>
      <trkpt lat="44.72808" lon="6.84315">
        <ele>1789.4789</ele>
        <time>2013-01-01T09:40:01Z</time>
      </trkpt>
      <trkpt lat="44.72824" lon="6.84333">
        <ele>1789.378</ele>
        <time>2013-01-01T09:40:05Z</time>
      </trkpt>
      <trkpt lat="44.72849" lon="6.84327">
        <ele>1791.4984</ele>
        <time>2013-01-01T09:40:11Z</time>
      </trkpt>
      <trkpt lat="44.72868" lon="6.84332">
        <ele>1794.2118</ele>
        <time>2013-01-01T09:40:45Z</time>
      </trkpt>
      <trkpt lat="44.72886" lon="6.84331">
        <ele>1786.6182</ele>
        <time>2013-01-01T09:41:26Z</time>
      </trkpt>
      <trkpt lat="44.72901" lon="6.84317">
        <ele>1800.9552</ele>
        <time>2013-01-01T09:41:49Z</time>
      </trkpt>
      <trkpt lat="44.72886" lon="6.84302">
        <ele>1788.3801</ele>
        <time>2013-01-01T09:42:48Z</time>
      </trkpt>
      <trkpt lat="44.72871" lon="6.84287">
        <ele>1791.4995</ele>
        <time>2013-01-01T09:43:24Z</time>
      </trkpt>
      <trkpt lat="44.72859" lon="6.84268">
        <ele>1780.0217</ele>
        <time>2013-01-01T09:43:46Z</time>
      </trkpt>
      <trkpt lat="44.72848" lon="6.84247">
        <ele>1777.3688</ele>
        <time>2013-01-01T09:44:09Z</time>
      </trkpt>
      <trkpt lat="44.72831" lon="6.84235">
        <ele>1762.0621</ele>
        <time>2013-01-01T09:44:32Z</time>
      </trkpt>
      <trkpt lat="44.72813" lon="6.8423">
        <ele>1767.9491</ele>
        <time>2013-01-01T09:44:46Z</time>
      </trkpt>
      <trkpt lat="44.72795" lon="6.84226">
        <ele>1764.2288</ele>
        <time>2013-01-01T09:45:10Z</time>
      </trkpt>
      <trkpt lat="44.72776" lon="6.84229">
        <ele>1757.9163</ele>
        <time>2013-01-01T09:45:25Z</time>
      </trkpt>
      <trkpt lat="44.72758" lon="6.84225">
        <ele>1757.1576</ele>
        <time>2013-01-01T09:45:41Z</time>
      </trkpt>
      <trkpt lat="44.7274" lon="6.84216">
        <ele>1752.9658</ele>
        <time>2013-01-01T09:45:57Z</time>
      </trkpt>
      <trkpt lat="44.7273" lon="6.84195">
        <ele>1760.2845</ele>
        <time>2013-01-01T09:46:15Z</time>
      </trkpt>
      <trkpt lat="44.72725" lon="6.8417">
        <ele>1755.7402</ele>
        <time>2013-01-01T09:46:39Z</time>
      </trkpt>
      <trkpt lat="44.72722" lon="6.84143">
        <ele>1744.1301</ele>
        <time>2013-01-01T09:48:40Z</time>
      </trkpt>
      <trkpt lat="44.72718" lon="6.84118">
        <ele>1751.8661</ele>
        <time>2013-01-01T09:48:53Z</time>
      </trkpt>
      <trkpt lat="44.72705" lon="6.84098">
        <ele>1761.3055</ele>
        <time>2013-01-01T09:49:13Z</time>
      </trkpt>
      <trkpt lat="44.72716" lon="6.84077">
        <ele>1770.8984</ele>
        <time>2013-01-01T09:51:17Z</time>
      </trkpt>
      <trkpt lat="44.72723" lon="6.84053">
        <ele>1768.7576</ele>
        <time>2013-01-01T09:51:56Z</time>
      </trkpt>
      <trkpt lat="44.72722" lon="6.84028">
        <ele>1769.6189</ele>
        <time>2013-01-01T09:52:19Z</time>
      </trkpt>
      <trkpt lat="44.72726" lon="6.84003">
        <ele>1770.3191</ele>
        <time>2013-01-01T09:52:48Z</time>
      </trkpt>
      <trkpt lat="44.72737" lon="6.83983">
        <ele>1788.9554</ele>
        <time>2013-01-01T09:53:12Z</time>
      </trkpt>
      <trkpt lat="44.72742" lon="6.83957">
        <ele>1788.6665</ele>
        <time>2013-01-01T09:53:38Z</time>
      </trkpt>
      <trkpt lat="44.7275" lon="6.83934">
        <ele>1790.8541</ele>
        <time>2013-01-01T09:54:00Z</time>
      </trkpt>
      <trkpt lat="44.72762" lon="6.83914">
        <ele>1792.2556</ele>
        <time>2013-01-01T09:54:21Z</time>
      </trkpt>
      <trkpt lat="44.72772" lon="6.83892">
        <ele>1796.0881</ele>
        <time>2013-01-01T09:54:44Z</time>
      </trkpt>
      <trkpt lat="44.72778" lon="6.83868">
        <ele>1795.4393</ele>
        <time>2013-01-01T09:55:08Z</time>
      </trkpt>
      <trkpt lat="44.72778" lon="6.83842">
        <ele>1801.9419</ele>
        <time>2013-01-01T09:55:35Z</time>
      </trkpt>
      <trkpt lat="44.72782" lon="6.83817">
        <ele>1806.1125</ele>
        <time>2013-01-01T09:55:54Z</time>
      </trkpt>
      <trkpt lat="44.72784" lon="6.83791">
        <ele>1811.9883</ele>
        <time>2013-01-01T09:56:15Z</time>
      </trkpt>
      <trkpt lat="44.72793" lon="6.83769">
        <ele>1810.9565</ele>
        <time>2013-01-01T09:56:45Z</time>
      </trkpt>
      <trkpt lat="44.72796" lon="6.83743">
        <ele>1817.0377</ele>
        <time>2013-01-01T09:57:06Z</time>
      </trkpt>
      <trkpt lat="44.72804" lon="6.8372">
        <ele>1818.271</ele>
        <time>2013-01-01T09:57:32Z</time>
      </trkpt>
      <trkpt lat="44.72808" lon="6.83695">
        <ele>1824.0673</ele>
        <time>2013-01-01T09:57:52Z</time>
      </trkpt>
      <trkpt lat="44.72811" lon="6.83669">
        <ele>1826.9575</ele>
        <time>2013-01-01T09:58:27Z</time>
      </trkpt>
      <trkpt lat="44.7282" lon="6.83647">
        <ele>1827.5564</ele>
        <time>2013-01-01T10:02:57Z</time>
      </trkpt>
      <trkpt lat="44.72821" lon="6.83621">
        <ele>1832.6758</ele>
        <time>2013-01-01T10:03:19Z</time>
      </trkpt>
      <trkpt lat="44.72824" lon="6.83595">
        <ele>1835.2576</ele>
        <time>2013-01-01T10:03:43Z</time>
      </trkpt>
      <trkpt lat="44.72832" lon="6.83572">
        <ele>1840.8846</ele>
        <time>2013-01-01T10:04:14Z</time>
      </trkpt>
      <trkpt lat="44.72836" lon="6.83546">
        <ele>1849.337</ele>
        <time>2013-01-01T10:04:33Z</time>
      </trkpt>
      <trkpt lat="44.72841" lon="6.83522">
        <ele>1847.0835</ele>
        <time>2013-01-01T10:04:52Z</time>
      </trkpt>
      <trkpt lat="44.72838" lon="6.83497">
        <ele>1850.8048</ele>
        <time>2013-01-01T10:05:33Z</time>
      </trkpt>
      <trkpt lat="44.7284" lon="6.83471">
        <ele>1856.051</ele>
        <time>2013-01-01T10:05:57Z</time>
      </trkpt>
      <trkpt lat="44.72845" lon="6.83447">
        <ele>1863.0161</ele>
        <time>2013-01-01T10:06:26Z</time>
      </trkpt>
      <trkpt lat="44.72847" lon="6.83421">
        <ele>1869.3505</ele>
        <time>2013-01-01T10:06:48Z</time>
      </trkpt>
      <trkpt lat="44.72843" lon="6.83396">
        <ele>1879.9597</ele>
        <time>2013-01-01T10:07:40Z</time>
      </trkpt>
      <trkpt lat="44.7283" lon="6.83379">
        <ele>1880.4379</ele>
        <time>2013-01-01T10:08:15Z</time>
      </trkpt>
      <trkpt lat="44.72836" lon="6.83355">
        <ele>1885.6578</ele>
        <time>2013-01-01T10:08:50Z</time>
      </trkpt>
      <trkpt lat="44.72845" lon="6.83332">
        <ele>1903.4019</ele>
        <time>2013-01-01T10:09:54Z</time>
      </trkpt>
      <trkpt lat="44.72862" lon="6.83341">
        <ele>1895.6296</ele>
        <time>2013-01-01T10:10:21Z</time>
      </trkpt>
      <trkpt lat="44.72875" lon="6.83358">
        <ele>1907.1877</ele>
        <time>2013-01-01T10:20:08Z</time>
      </trkpt>
      <trkpt lat="44.72886" lon="6.83338">
        <ele>1907.3997</ele>
        <time>2013-01-01T10:20:30Z</time>
      </trkpt>
      <trkpt lat="44.7289" lon="6.83311">
        <ele>1914.7792</ele>
        <time>2013-01-01T10:20:44Z</time>
      </trkpt>
      <trkpt lat="44.72903" lon="6.83293">
        <ele>1914.4724</ele>
        <time>2013-01-01T10:21:03Z</time>
      </trkpt>
      <trkpt lat="44.72917" lon="6.83277">
        <ele>1916.0585</ele>
        <time>2013-01-01T10:21:21Z</time>
      </trkpt>
      <trkpt lat="44.72932" lon="6.83259">
        <ele>1929.1321</ele>
        <time>2013-01-01T10:21:38Z</time>
      </trkpt>
      <trkpt lat="44.72946" lon="6.83243">
        <ele>1924.5265</ele>
        <time>2013-01-01T10:21:56Z</time>
      </trkpt>
      <trkpt lat="44.72955" lon="6.83221">
        <ele>1918.6877</ele>
        <time>2013-01-01T10:22:12Z</time>
      </trkpt>
      <trkpt lat="44.72971" lon="6.83205">
        <ele>1919.7322</ele>
        <time>2013-01-01T10:22:32Z</time>
      </trkpt>
      <trkpt lat="44.7298" lon="6.83184">
        <ele>1930.0381</ele>
        <time>2013-01-01T10:22:53Z</time>
      </trkpt>
      <trkpt lat="44.72984" lon="6.83157">
        <ele>1939.6083</ele>
        <time>2013-01-01T10:23:21Z</time>
      </trkpt>
      <trkpt lat="44.7299" lon="6.83133">
        <ele>1934.2024</ele>
        <time>2013-01-01T10:23:50Z</time>
      </trkpt>
      <trkpt lat="44.72994" lon="6.83107">
        <ele>1928.6514</ele>
        <time>2013-01-01T10:24:16Z</time>
      </trkpt>
      <trkpt lat="44.72999" lon="6.83083">
        <ele>1931.2406</ele>
        <time>2013-01-01T10:24:36Z</time>
      </trkpt>
      <trkpt lat="44.73" lon="6.83057">
        <ele>1951.3735</ele>
        <time>2013-01-01T10:25:04Z</time>
      </trkpt>
      <trkpt lat="44.72993" lon="6.83033">
        <ele>1948.5664</ele>
        <time>2013-01-01T10:25:22Z</time>
      </trkpt>
      <trkpt lat="44.72986" lon="6.83009">
        <ele>1949.4808</ele>
        <time>2013-01-01T10:25:40Z</time>
      </trkpt>
      <trkpt lat="44.72992" lon="6.82984">
        <ele>1956.1189</ele>
        <time>2013-01-01T10:25:59Z</time>
      </trkpt>
      <trkpt lat="44.72993" lon="6.82959">
        <ele>1955.1694</ele>
        <time>2013-01-01T10:26:26Z</time>
      </trkpt>
      <trkpt lat="44.72978" lon="6.82944">
        <ele>1956.944</ele>
        <time>2013-01-01T10:26:45Z</time>
      </trkpt>
      <trkpt lat="44.72965" lon="6.82927">
        <ele>1946.9891</ele>
        <time>2013-01-01T10:27:16Z</time>
      </trkpt>
      <trkpt lat="44.72954" lon="6.82907">
        <ele>1954.8665</ele>
        <time>2013-01-01T10:27:33Z</time>
      </trkpt>
      <trkpt lat="44.72953" lon="6.82881">
        <ele>1954.481</ele>
        <time>2013-01-01T10:27:56Z</time>
      </trkpt>
      <trkpt lat="44.7294" lon="6.82862">
        <ele>1949.6179</ele>
        <time>2013-01-01T10:28:14Z</time>
      </trkpt>
      <trkpt lat="44.72927" lon="6.82844">
        <ele>1960.1068</ele>
        <time>2013-01-01T10:28:26Z</time>
      </trkpt>
      <trkpt lat="44.72921" lon="6.82819">
        <ele>1960.795</ele>
        <time>2013-01-01T10:28:47Z</time>
      </trkpt>
      <trkpt lat="44.72912" lon="6.82796">
        <ele>1957.3843</ele>
        <time>2013-01-01T10:29:06Z</time>
      </trkpt>
      <trkpt lat="44.7291" lon="6.82771">
        <ele>1969.6813</ele>
        <time>2013-01-01T10:29:25Z</time>
      </trkpt>
      <trkpt lat="44.72909" lon="6.82745">
        <ele>1973.3339</ele>
        <time>2013-01-01T10:29:44Z</time>
      </trkpt>
      <trkpt lat="44.72911" lon="6.82719">
        <ele>1964.6531</ele>
        <time>2013-01-01T10:30:04Z</time>
      </trkpt>
      <trkpt lat="44.72913" lon="6.82693">
        <ele>1971.6471</ele>
        <time>2013-01-01T10:30:27Z</time>
      </trkpt>
      <trkpt lat="44.72913" lon="6.82667">
        <ele>1968.1564</ele>
        <time>2013-01-01T10:30:45Z</time>
      </trkpt>
      <trkpt lat="44.72908" lon="6.82642">
        <ele>1976.7877</ele>
        <time>2013-01-01T10:31:10Z</time>
      </trkpt>
      <trkpt lat="44.72905" lon="6.82617">
        <ele>1970.4695</ele>
        <time>2013-01-01T10:31:29Z</time>
      </trkpt>
      <trkpt lat="44.729" lon="6.82592">
        <ele>1974.9481</ele>
        <time>2013-01-01T10:31:45Z</time>
      </trkpt>
      <trkpt lat="44.72887" lon="6.82574">
        <ele>1976.0714</ele>
        <time>2013-01-01T10:32:07Z</time>
      </trkpt>
      <trkpt lat="44.72896" lon="6.82551">
        <ele>1971.004</ele>
        <time>2013-01-01T10:33:05Z</time>
      </trkpt>
      <trkpt lat="44.72914" lon="6.8255">
        <ele>1977.078</ele>
        <time>2013-01-01T10:33:22Z</time>
      </trkpt>
      <trkpt lat="44.72932" lon="6.82538">
        <ele>1978.1295</ele>
        <time>2013-01-01T10:33:40Z</time>
      </trkpt>
      <trkpt lat="44.72946" lon="6.82523">
        <ele>1982.5986</ele>
        <time>2013-01-01T10:34:00Z</time>
      </trkpt>
      <trkpt lat="44.72958" lon="6.82503">
        <ele>1992.3759</ele>
        <time>2013-01-01T10:36:44Z</time>
      </trkpt>
      <trkpt lat="44.72959" lon="6.82476">
        <ele>1986.3729</ele>
        <time>2013-01-01T10:37:03Z</time>
      </trkpt>
      <trkpt lat="44.72972" lon="6.82457">
        <ele>1974.0266</ele>
        <time>2013-01-01T10:37:25Z</time>
      </trkpt>
      <trkpt lat="44.72979" lon="6.82434">
        <ele>1989.0668</ele>
        <time>2013-01-01T10:37:52Z</time>
      </trkpt>
      <trkpt lat="44.72979" lon="6.82408">
        <ele>1988.9596</ele>
        <time>2013-01-01T10:38:16Z</time>
      </trkpt>
      <trkpt lat="44.72981" lon="6.82382">
        <ele>1987.7946</ele>
        <time>2013-01-01T10:39:04Z</time>
      </trkpt>
      <trkpt lat="44.72986" lon="6.82356">
        <ele>2001.6005</ele>
        <time>2013-01-01T10:39:24Z</time>
      </trkpt>
      <trkpt lat="44.72992" lon="6.82332">
        <ele>1995.0471</ele>
        <time>2013-01-01T10:39:47Z</time>
      </trkpt>
      <trkpt lat="44.73006" lon="6.82316">
        <ele>1993.4915</ele>
        <time>2013-01-01T10:40:16Z</time>
      </trkpt>
      <trkpt lat="44.73021" lon="6.82302">
        <ele>2000.3324</ele>
        <time>2013-01-01T10:40:42Z</time>
      </trkpt>
      <trkpt lat="44.73035" lon="6.82284">
        <ele>2005.8103</ele>
        <time>2013-01-01T10:41:10Z</time>
      </trkpt>
      <trkpt lat="44.73047" lon="6.82265">
        <ele>2004.7673</ele>
        <time>2013-01-01T10:41:33Z</time>
      </trkpt>
      <trkpt lat="44.73059" lon="6.82245">
        <ele>2021.3665</ele>
        <time>2013-01-01T10:42:44Z</time>
      </trkpt>
      <trkpt lat="44.73072" lon="6.82227">
        <ele>2017.0919</ele>
        <time>2013-01-01T10:43:01Z</time>
      </trkpt>
      <trkpt lat="44.73084" lon="6.82208">
        <ele>2014.9182</ele>
        <time>2013-01-01T10:43:19Z</time>
      </trkpt>
      <trkpt lat="44.73096" lon="6.82188">
        <ele>2021.9766</ele>
        <time>2013-01-01T10:43:42Z</time>
      </trkpt>
      <trkpt lat="44.7311" lon="6.8217">
        <ele>2028.9623</ele>
        <time>2013-01-01T10:44:03Z</time>
      </trkpt>
      <trkpt lat="44.7312" lon="6.82149">
        <ele>2030.309</ele>
        <time>2013-01-01T10:44:25Z</time>
      </trkpt>
      <trkpt lat="44.73133" lon="6.8213">
        <ele>2032.5563</ele>
        <time>2013-01-01T10:44:45Z</time>
      </trkpt>
      <trkpt lat="44.73147" lon="6.82114">
        <ele>2040.7095</ele>
        <time>2013-01-01T10:45:33Z</time>
      </trkpt>
      <trkpt lat="44.73157" lon="6.82093">
        <ele>2047.5859</ele>
        <time>2013-01-01T10:45:57Z</time>
      </trkpt>
      <trkpt lat="44.73171" lon="6.82076">
        <ele>2055.5278</ele>
        <time>2013-01-01T10:46:34Z</time>
      </trkpt>
      <trkpt lat="44.73185" lon="6.82061">
        <ele>2056.3203</ele>
        <time>2013-01-01T10:46:58Z</time>
      </trkpt>
      <trkpt lat="44.73201" lon="6.82048">
        <ele>2056.721</ele>
        <time>2013-01-01T10:47:18Z</time>
      </trkpt>
      <trkpt lat="44.73215" lon="6.82031">
        <ele>2059.4998</ele>
        <time>2013-01-01T10:47:43Z</time>
      </trkpt>
      <trkpt lat="44.7323" lon="6.82016">
        <ele>2052.6265</ele>
        <time>2013-01-01T10:48:06Z</time>
      </trkpt>
      <trkpt lat="44.73247" lon="6.82007">
        <ele>2063.1104</ele>
        <time>2013-01-01T10:48:35Z</time>
      </trkpt>
      <trkpt lat="44.73264" lon="6.81998">
        <ele>2048.11</ele>
        <time>2013-01-01T10:49:48Z</time>
      </trkpt>
      <trkpt lat="44.73282" lon="6.81991">
        <ele>2060.8838</ele>
        <time>2013-01-01T10:50:19Z</time>
      </trkpt>
      <trkpt lat="44.73298" lon="6.81981">
        <ele>2066.4238</ele>
        <time>2013-01-01T10:50:39Z</time>
      </trkpt>
      <trkpt lat="44.73317" lon="6.81981">
        <ele>2067.5305</ele>
        <time>2013-01-01T10:51:04Z</time>
      </trkpt>
      <trkpt lat="44.73335" lon="6.81982">
        <ele>2069.4329</ele>
        <time>2013-01-01T10:52:41Z</time>
      </trkpt>
      <trkpt lat="44.73353" lon="6.81981">
        <ele>2073.263</ele>
        <time>2013-01-01T10:53:06Z</time>
      </trkpt>
      <trkpt lat="44.73349" lon="6.81956">
        <ele>2080.8652</ele>
        <time>2013-01-01T10:55:14Z</time>
      </trkpt>
      <trkpt lat="44.73335" lon="6.8194">
        <ele>2095.7017</ele>
        <time>2013-01-01T10:55:44Z</time>
      </trkpt>
      <trkpt lat="44.73322" lon="6.81922">
        <ele>2093.0637</ele>
        <time>2013-01-01T10:56:09Z</time>
      </trkpt>
      <trkpt lat="44.73306" lon="6.81909">
        <ele>2103.2012</ele>
        <time>2013-01-01T10:56:38Z</time>
      </trkpt>
      <trkpt lat="44.73288" lon="6.81905">
        <ele>2108.6567</ele>
        <time>2013-01-01T10:57:07Z</time>
      </trkpt>
      <trkpt lat="44.73272" lon="6.81893">
        <ele>2111.8408</ele>
        <time>2013-01-01T10:57:41Z</time>
      </trkpt>
      <trkpt lat="44.73257" lon="6.81878">
        <ele>2112.6895</ele>
        <time>2013-01-01T10:58:08Z</time>
      </trkpt>
      <trkpt lat="44.7324" lon="6.81868">
        <ele>2121.9792</ele>
        <time>2013-01-01T10:58:35Z</time>
      </trkpt>
      <trkpt lat="44.73226" lon="6.81853">
        <ele>2123.6917</ele>
        <time>2013-01-01T10:59:04Z</time>
      </trkpt>
      <trkpt lat="44.73208" lon="6.81846">
        <ele>2121.9377</ele>
        <time>2013-01-01T10:59:32Z</time>
      </trkpt>
      <trkpt lat="44.73194" lon="6.8183">
        <ele>2112.9385</ele>
        <time>2013-01-01T11:00:47Z</time>
      </trkpt>
      <trkpt lat="44.73178" lon="6.81844">
        <ele>2119.4219</ele>
        <time>2013-01-01T11:03:27Z</time>
      </trkpt>
      <trkpt lat="44.73163" lon="6.81861">
        <ele>2127.0042</ele>
        <time>2013-01-01T11:03:42Z</time>
      </trkpt>
      <trkpt lat="44.73146" lon="6.81869">
        <ele>2132.7834</ele>
        <time>2013-01-01T11:04:17Z</time>
      </trkpt>
      <trkpt lat="44.73128" lon="6.81876">
        <ele>2128.7712</ele>
        <time>2013-01-01T11:04:34Z</time>
      </trkpt>
      <trkpt lat="44.73115" lon="6.81894">
        <ele>2124.2737</ele>
        <time>2013-01-01T11:04:51Z</time>
      </trkpt>
      <trkpt lat="44.73101" lon="6.81911">
        <ele>2125.4202</ele>
        <time>2013-01-01T11:05:06Z</time>
      </trkpt>
      <trkpt lat="44.73082" lon="6.81916">
        <ele>2127.4429</ele>
        <time>2013-01-01T11:05:23Z</time>
      </trkpt>
      <trkpt lat="44.73064" lon="6.81918">
        <ele>2130.193</ele>
        <time>2013-01-01T11:05:41Z</time>
      </trkpt>
      <trkpt lat="44.73046" lon="6.81915">
        <ele>2127.1265</ele>
        <time>2013-01-01T11:05:58Z</time>
      </trkpt>
      <trkpt lat="44.73028" lon="6.81919">
        <ele>2135.8408</ele>
        <time>2013-01-01T11:06:17Z</time>
      </trkpt>
      <trkpt lat="44.7301" lon="6.81915">
        <ele>2133.965</ele>
        <time>2013-01-01T11:07:49Z</time>
      </trkpt>
      <trkpt lat="44.72993" lon="6.81928">
        <ele>2135.7153</ele>
        <time>2013-01-01T11:15:18Z</time>
      </trkpt>
      <trkpt lat="44.72975" lon="6.81924">
        <ele>2132.391</ele>
        <time>2013-01-01T11:15:35Z</time>
      </trkpt>
      <trkpt lat="44.72957" lon="6.81917">
        <ele>2131.894</ele>
        <time>2013-01-01T11:15:55Z</time>
      </trkpt>
      <trkpt lat="44.7294" lon="6.81908">
        <ele>2133.148</ele>
        <time>2013-01-01T11:16:15Z</time>
      </trkpt>
      <trkpt lat="44.72922" lon="6.81905">
        <ele>2136.2117</ele>
        <time>2013-01-01T11:16:39Z</time>
      </trkpt>
      <trkpt lat="44.72904" lon="6.819">
        <ele>2140.4517</ele>
        <time>2013-01-01T11:20:24Z</time>
      </trkpt>
      <trkpt lat="44.72899" lon="6.81874">
        <ele>2154.4973</ele>
        <time>2013-01-01T11:20:55Z</time>
      </trkpt>
      <trkpt lat="44.72911" lon="6.81854">
        <ele>2154.148</ele>
        <time>2013-01-01T11:21:20Z</time>
      </trkpt>
      <trkpt lat="44.72929" lon="6.81846">
        <ele>2154.865</ele>
        <time>2013-01-01T11:21:39Z</time>
      </trkpt>
      <trkpt lat="44.72945" lon="6.81836">
        <ele>2151.1301</ele>
        <time>2013-01-01T11:22:00Z</time>
      </trkpt>
      <trkpt lat="44.72963" lon="6.81826">
        <ele>2153.719</ele>
        <time>2013-01-01T11:22:23Z</time>
      </trkpt>
      <trkpt lat="44.72981" lon="6.81821">
        <ele>2169.179</ele>
        <time>2013-01-01T11:22:50Z</time>
      </trkpt>
      <trkpt lat="44.72999" lon="6.81818">
        <ele>2162.73</ele>
        <time>2013-01-01T11:23:13Z</time>
      </trkpt>
      <trkpt lat="44.73015" lon="6.81805">
        <ele>2165.5051</ele>
        <time>2013-01-01T11:23:37Z</time>
      </trkpt>
      <trkpt lat="44.73019" lon="6.81779">
        <ele>2164.276</ele>
        <time>2013-01-01T11:24:03Z</time>
      </trkpt>
      <trkpt lat="44.7302" lon="6.81754">
        <ele>2163.125</ele>
        <time>2013-01-01T11:24:24Z</time>
      </trkpt>
      <trkpt lat="44.7302" lon="6.81728">
        <ele>2182.4207</ele>
        <time>2013-01-01T11:26:55Z</time>
      </trkpt>
      <trkpt lat="44.73004" lon="6.81716">
        <ele>2174.5574</ele>
        <time>2013-01-01T11:29:49Z</time>
      </trkpt>
      <trkpt lat="44.73002" lon="6.8169">
        <ele>2181.4585</ele>
        <time>2013-01-01T11:30:14Z</time>
      </trkpt>
      <trkpt lat="44.72989" lon="6.81672">
        <ele>2185.3162</ele>
        <time>2013-01-01T11:30:41Z</time>
      </trkpt>
      <trkpt lat="44.72976" lon="6.81653">
        <ele>2189.0054</ele>
        <time>2013-01-01T11:31:40Z</time>
      </trkpt>
      <trkpt lat="44.72962" lon="6.81636">
        <ele>2189.1277</ele>
        <time>2013-01-01T11:32:17Z</time>
      </trkpt>
      <trkpt lat="44.7296" lon="6.81611">
        <ele>2191.3313</ele>
        <time>2013-01-01T11:32:38Z</time>
      </trkpt>
      <trkpt lat="44.72958" lon="6.81585">
        <ele>2194.9495</ele>
        <time>2013-01-01T11:33:08Z</time>
      </trkpt>
      <trkpt lat="44.72949" lon="6.81563">
        <ele>2196.4</ele>
        <time>2013-01-01T11:33:39Z</time>
      </trkpt>
      <trkpt lat="44.72966" lon="6.81556">
        <ele>2213.0012</ele>
        <time>2013-01-01T11:41:56Z</time>
      </trkpt>
      <trkpt lat="44.72978" lon="6.81535">
        <ele>2201.5903</ele>
        <time>2013-01-01T11:42:19Z</time>
      </trkpt>
      <trkpt lat="44.72995" lon="6.81526">
        <ele>2204.525</ele>
        <time>2013-01-01T11:42:32Z</time>
      </trkpt>
      <trkpt lat="44.73011" lon="6.81514">
        <ele>2203.6018</ele>
        <time>2013-01-01T11:42:45Z</time>
      </trkpt>
      <trkpt lat="44.73028" lon="6.81504">
        <ele>2199.4739</ele>
        <time>2013-01-01T11:42:58Z</time>
      </trkpt>
      <trkpt lat="44.73046" lon="6.81495">
        <ele>2199.1877</ele>
        <time>2013-01-01T11:43:13Z</time>
      </trkpt>
      <trkpt lat="44.73064" lon="6.81489">
        <ele>2200.8413</ele>
        <time>2013-01-01T11:43:29Z</time>
      </trkpt>
      <trkpt lat="44.73083" lon="6.81485">
        <ele>2198.329</ele>
        <time>2013-01-01T11:43:43Z</time>
      </trkpt>
      <trkpt lat="44.73101" lon="6.8148">
        <ele>2196.9316</ele>
        <time>2013-01-01T11:43:58Z</time>
      </trkpt>
      <trkpt lat="44.73119" lon="6.81474">
        <ele>2196.1804</ele>
        <time>2013-01-01T11:45:46Z</time>
      </trkpt>
      <trkpt lat="44.73137" lon="6.81476">
        <ele>2196.288</ele>
        <time>2013-01-01T11:45:59Z</time>
      </trkpt>
      <trkpt lat="44.73155" lon="6.81481">
        <ele>2194.6226</ele>
        <time>2013-01-01T11:46:12Z</time>
      </trkpt>
      <trkpt lat="44.73169" lon="6.81497">
        <ele>2191.1526</ele>
        <time>2013-01-01T11:46:28Z</time>
      </trkpt>
      <trkpt lat="44.73181" lon="6.81517">
        <ele>2188.16</ele>
        <time>2013-01-01T11:46:49Z</time>
      </trkpt>
      <trkpt lat="44.73195" lon="6.81535">
        <ele>2184.5908</ele>
        <time>2013-01-01T11:47:12Z</time>
      </trkpt>
      <trkpt lat="44.73206" lon="6.81556">
        <ele>2187.532</ele>
        <time>2013-01-01T11:48:31Z</time>
      </trkpt>
      <trkpt lat="44.73219" lon="6.81537">
        <ele>2176.3914</ele>
        <time>2013-01-01T12:32:38Z</time>
      </trkpt>
      <trkpt lat="44.73237" lon="6.81531">
        <ele>2186.3022</ele>
        <time>2013-01-01T12:37:18Z</time>
      </trkpt>
      <trkpt lat="44.73219" lon="6.81529">
        <ele>2176.4272</ele>
        <time>2013-01-01T12:38:07Z</time>
      </trkpt>
      <trkpt lat="44.73211" lon="6.81551">
        <ele>2184.5488</ele>
        <time>2013-01-01T12:43:42Z</time>
      </trkpt>
      <trkpt lat="44.73208" lon="6.81525">
        <ele>2188.8342</ele>
        <time>2013-01-01T12:44:21Z</time>
      </trkpt>
      <trkpt lat="44.7321" lon="6.815">
        <ele>2189.8542</ele>
        <time>2013-01-01T12:44:51Z</time>
      </trkpt>
      <trkpt lat="44.73222" lon="6.81479">
        <ele>2190.0552</ele>
        <time>2013-01-01T12:45:40Z</time>
      </trkpt>
      <trkpt lat="44.73236" lon="6.81464">
        <ele>2190.3066</ele>
        <time>2013-01-01T12:46:02Z</time>
      </trkpt>
      <trkpt lat="44.73252" lon="6.8145">
        <ele>2198.7578</ele>
        <time>2013-01-01T12:46:26Z</time>
      </trkpt>
      <trkpt lat="44.73269" lon="6.81445">
        <ele>2196.5417</ele>
        <time>2013-01-01T12:47:52Z</time>
      </trkpt>
      <trkpt lat="44.73286" lon="6.81435">
        <ele>2196.9158</ele>
        <time>2013-01-01T12:48:08Z</time>
      </trkpt>
      <trkpt lat="44.73304" lon="6.81428">
        <ele>2200.219</ele>
        <time>2013-01-01T12:48:31Z</time>
      </trkpt>
      <trkpt lat="44.73319" lon="6.81413">
        <ele>2214.1382</ele>
        <time>2013-01-01T12:48:59Z</time>
      </trkpt>
      <trkpt lat="44.73338" lon="6.81412">
        <ele>2214.521</ele>
        <time>2013-01-01T12:49:21Z</time>
      </trkpt>
      <trkpt lat="44.73354" lon="6.81399">
        <ele>2211.9275</ele>
        <time>2013-01-01T12:49:42Z</time>
      </trkpt>
      <trkpt lat="44.73371" lon="6.8139">
        <ele>2222.9004</ele>
        <time>2013-01-01T12:50:08Z</time>
      </trkpt>
      <trkpt lat="44.73385" lon="6.81373">
        <ele>2220.4634</ele>
        <time>2013-01-01T12:50:34Z</time>
      </trkpt>
      <trkpt lat="44.73399" lon="6.81356">
        <ele>2234.4355</ele>
        <time>2013-01-01T12:50:53Z</time>
      </trkpt>
      <trkpt lat="44.73418" lon="6.81348">
        <ele>2230.6826</ele>
        <time>2013-01-01T12:51:25Z</time>
      </trkpt>
      <trkpt lat="44.73436" lon="6.81342">
        <ele>2223.3916</ele>
        <time>2013-01-01T12:52:33Z</time>
      </trkpt>
      <trkpt lat="44.73454" lon="6.81352">
        <ele>2224.8567</ele>
        <time>2013-01-01T12:52:51Z</time>
      </trkpt>
      <trkpt lat="44.73467" lon="6.81371">
        <ele>2232.1</ele>
        <time>2013-01-01T12:53:10Z</time>
      </trkpt>
      <trkpt lat="44.73485" lon="6.8138">
        <ele>2235.7925</ele>
        <time>2013-01-01T12:53:27Z</time>
      </trkpt>
      <trkpt lat="44.73503" lon="6.81386">
        <ele>2242.5923</ele>
        <time>2013-01-01T12:53:50Z</time>
      </trkpt>
      <trkpt lat="44.7352" lon="6.81375">
        <ele>2247.8435</ele>
        <time>2013-01-01T12:54:08Z</time>
      </trkpt>
      <trkpt lat="44.73538" lon="6.81376">
        <ele>2251.5903</ele>
        <time>2013-01-01T12:54:23Z</time>
      </trkpt>
      <trkpt lat="44.73557" lon="6.81378">
        <ele>2250.9949</ele>
        <time>2013-01-01T12:54:40Z</time>
      </trkpt>
      <trkpt lat="44.73576" lon="6.81379">
        <ele>2250.5146</ele>
        <time>2013-01-01T12:55:44Z</time>
      </trkpt>
      <trkpt lat="44.73594" lon="6.81378">
        <ele>2255.726</ele>
        <time>2013-01-01T12:56:09Z</time>
      </trkpt>
      <trkpt lat="44.73612" lon="6.81375">
        <ele>2265.9377</ele>
        <time>2013-01-01T12:56:33Z</time>
      </trkpt>
      <trkpt lat="44.73627" lon="6.8139">
        <ele>2286</ele>
        <time>2013-01-01T12:58:08Z</time>
      </trkpt>
      <trkpt lat="44.73646" lon="6.81393">
        <ele>2264.027</ele>
        <time>2013-01-01T13:00:53Z</time>
      </trkpt>
      <trkpt lat="44.73663" lon="6.81399">
        <ele>2268.9722</ele>
        <time>2013-01-01T13:02:09Z</time>
      </trkpt>
      <trkpt lat="44.73675" lon="6.81419">
        <ele>2246.2695</ele>
        <time>2013-01-01T13:03:16Z</time>
      </trkpt>
      <trkpt lat="44.73689" lon="6.81436">
        <ele>2238.2686</ele>
        <time>2013-01-01T13:03:56Z</time>
      </trkpt>
      <trkpt lat="44.73706" lon="6.8143">
        <ele>2244.8535</ele>
        <time>2013-01-01T13:04:28Z</time>
      </trkpt>
      <trkpt lat="44.73724" lon="6.81427">
        <ele>2249.4436</ele>
        <time>2013-01-01T13:04:44Z</time>
      </trkpt>
      <trkpt lat="44.7374" lon="6.81415">
        <ele>2254.9219</ele>
        <time>2013-01-01T13:05:06Z</time>
      </trkpt>
      <trkpt lat="44.73755" lon="6.814">
        <ele>2266.3608</ele>
        <time>2013-01-01T13:05:29Z</time>
      </trkpt>
      <trkpt lat="44.7376" lon="6.81375">
        <ele>2256.8682</ele>
        <time>2013-01-01T13:05:57Z</time>
      </trkpt>
      <trkpt lat="44.73769" lon="6.81353">
        <ele>2256.856</ele>
        <time>2013-01-01T13:06:18Z</time>
      </trkpt>
      <trkpt lat="44.73781" lon="6.81333">
        <ele>2269.6826</ele>
        <time>2013-01-01T13:07:00Z</time>
      </trkpt>
      <trkpt lat="44.73799" lon="6.81336">
        <ele>2279.171</ele>
        <time>2013-01-01T13:07:56Z</time>
      </trkpt>
      <trkpt lat="44.73816" lon="6.81347">
        <ele>2286.926</ele>
        <time>2013-01-01T13:08:29Z</time>
      </trkpt>
      <trkpt lat="44.73827" lon="6.81368">
        <ele>2288.6526</ele>
        <time>2013-01-01T13:08:54Z</time>
      </trkpt>
      <trkpt lat="44.73842" lon="6.81383">
        <ele>2306.824</ele>
        <time>2013-01-01T13:09:28Z</time>
      </trkpt>
      <trkpt lat="44.73831" lon="6.81363">
        <ele>2304.7888</ele>
        <time>2013-01-01T13:17:46Z</time>
      </trkpt>
      <trkpt lat="44.73822" lon="6.8134">
        <ele>2293.3308</ele>
        <time>2013-01-01T13:18:40Z</time>
      </trkpt>
      <trkpt lat="44.73804" lon="6.8133">
        <ele>2281.7954</ele>
        <time>2013-01-01T13:19:13Z</time>
      </trkpt>
      <trkpt lat="44.73788" lon="6.81319">
        <ele>2279.016</ele>
        <time>2013-01-01T13:19:40Z</time>
      </trkpt>
      <trkpt lat="44.7377" lon="6.81317">
        <ele>2272.3262</ele>
        <time>2013-01-01T13:19:59Z</time>
      </trkpt>
      <trkpt lat="44.73752" lon="6.81311">
        <ele>2255.0686</ele>
        <time>2013-01-01T13:20:26Z</time>
      </trkpt>
      <trkpt lat="44.73732" lon="6.81303">
        <ele>2247.9446</ele>
        <time>2013-01-01T13:21:32Z</time>
      </trkpt>
      <trkpt lat="44.73713" lon="6.81302">
        <ele>2250.1345</ele>
        <time>2013-01-01T13:21:41Z</time>
      </trkpt>
      <trkpt lat="44.73694" lon="6.81298">
        <ele>2247.3962</ele>
        <time>2013-01-01T13:21:52Z</time>
      </trkpt>
      <trkpt lat="44.73676" lon="6.81292">
        <ele>2232.6191</ele>
        <time>2013-01-01T13:23:51Z</time>
      </trkpt>
      <trkpt lat="44.73658" lon="6.81286">
        <ele>2233.3792</ele>
        <time>2013-01-01T13:24:13Z</time>
      </trkpt>
      <trkpt lat="44.7364" lon="6.81292">
        <ele>2233.3533</ele>
        <time>2013-01-01T13:24:30Z</time>
      </trkpt>
      <trkpt lat="44.73621" lon="6.81287">
        <ele>2225.666</ele>
        <time>2013-01-01T13:24:48Z</time>
      </trkpt>
      <trkpt lat="44.73603" lon="6.81286">
        <ele>2224.8323</ele>
        <time>2013-01-01T13:25:08Z</time>
      </trkpt>
      <trkpt lat="44.73598" lon="6.8126">
        <ele>2242.3867</ele>
        <time>2013-01-01T13:25:32Z</time>
      </trkpt>
      <trkpt lat="44.73583" lon="6.81245">
        <ele>2236.098</ele>
        <time>2013-01-01T13:25:47Z</time>
      </trkpt>
      <trkpt lat="44.73565" lon="6.81239">
        <ele>2232.7327</ele>
        <time>2013-01-01T13:25:59Z</time>
      </trkpt>
      <trkpt lat="44.73548" lon="6.81233">
        <ele>2224.5042</ele>
        <time>2013-01-01T13:26:12Z</time>
      </trkpt>
      <trkpt lat="44.73531" lon="6.81246">
        <ele>2232.263</ele>
        <time>2013-01-01T13:28:22Z</time>
      </trkpt>
      <trkpt lat="44.73516" lon="6.81264">
        <ele>2228.877</ele>
        <time>2013-01-01T13:28:39Z</time>
      </trkpt>
      <trkpt lat="44.73498" lon="6.81263">
        <ele>2227.8994</ele>
        <time>2013-01-01T13:28:58Z</time>
      </trkpt>
      <trkpt lat="44.73479" lon="6.81261">
        <ele>2229.8599</ele>
        <time>2013-01-01T13:29:16Z</time>
      </trkpt>
      <trkpt lat="44.73461" lon="6.81251">
        <ele>2230.0232</ele>
        <time>2013-01-01T13:29:36Z</time>
      </trkpt>
      <trkpt lat="44.73442" lon="6.8125">
        <ele>2237.7952</ele>
        <time>2013-01-01T13:29:50Z</time>
      </trkpt>
      <trkpt lat="44.73425" lon="6.81258">
        <ele>2231.434</ele>
        <time>2013-01-01T13:30:07Z</time>
      </trkpt>
      <trkpt lat="44.73406" lon="6.81264">
        <ele>2229.4417</ele>
        <time>2013-01-01T13:30:24Z</time>
      </trkpt>
      <trkpt lat="44.73389" lon="6.81271">
        <ele>2223.7678</ele>
        <time>2013-01-01T13:30:42Z</time>
      </trkpt>
      <trkpt lat="44.73371" lon="6.81276">
        <ele>2219.413</ele>
        <time>2013-01-01T13:30:56Z</time>
      </trkpt>
      <trkpt lat="44.73357" lon="6.81292">
        <ele>2213.6526</ele>
        <time>2013-01-01T13:31:13Z</time>
      </trkpt>
      <trkpt lat="44.73345" lon="6.81311">
        <ele>2216.8315</ele>
        <time>2013-01-01T13:31:29Z</time>
      </trkpt>
      <trkpt lat="44.73334" lon="6.81333">
        <ele>2210.169</ele>
        <time>2013-01-01T13:31:44Z</time>
      </trkpt>
      <trkpt lat="44.73321" lon="6.81351">
        <ele>2208.9714</ele>
        <time>2013-01-01T13:32:00Z</time>
      </trkpt>
      <trkpt lat="44.73306" lon="6.81367">
        <ele>2204.9204</ele>
        <time>2013-01-01T13:32:16Z</time>
      </trkpt>
      <trkpt lat="44.7329" lon="6.8138">
        <ele>2203.498</ele>
        <time>2013-01-01T13:32:32Z</time>
      </trkpt>
      <trkpt lat="44.73273" lon="6.81392">
        <ele>2207.0151</ele>
        <time>2013-01-01T13:33:11Z</time>
      </trkpt>
      <trkpt lat="44.73257" lon="6.81403">
        <ele>2208.4712</ele>
        <time>2013-01-01T13:33:34Z</time>
      </trkpt>
      <trkpt lat="44.73245" lon="6.81423">
        <ele>2210.7507</ele>
        <time>2013-01-01T13:33:54Z</time>
      </trkpt>
      <trkpt lat="44.73227" lon="6.81426">
        <ele>2206.7104</ele>
        <time>2013-01-01T13:34:14Z</time>
      </trkpt>
      <trkpt lat="44.73209" lon="6.81436">
        <ele>2200.8457</ele>
        <time>2013-01-01T13:34:30Z</time>
      </trkpt>
      <trkpt lat="44.73192" lon="6.81449">
        <ele>2200.925</ele>
        <time>2013-01-01T13:34:46Z</time>
      </trkpt>
      <trkpt lat="44.73176" lon="6.81462">
        <ele>2199.8323</ele>
        <time>2013-01-01T13:35:06Z</time>
      </trkpt>
      <trkpt lat="44.73158" lon="6.81465">
        <ele>2197.6057</ele>
        <time>2013-01-01T13:35:24Z</time>
      </trkpt>
      <trkpt lat="44.7314" lon="6.81466">
        <ele>2196.4917</ele>
        <time>2013-01-01T13:35:41Z</time>
      </trkpt>
      <trkpt lat="44.73122" lon="6.81474">
        <ele>2194.2898</ele>
        <time>2013-01-01T13:36:01Z</time>
      </trkpt>
      <trkpt lat="44.73122" lon="6.81501">
        <ele>2190.1965</ele>
        <time>2013-01-01T13:36:25Z</time>
      </trkpt>
      <trkpt lat="44.73135" lon="6.8152">
        <ele>2185.7458</ele>
        <time>2013-01-01T13:36:44Z</time>
      </trkpt>
      <trkpt lat="44.73149" lon="6.81539">
        <ele>2185.1611</ele>
        <time>2013-01-01T13:36:59Z</time>
      </trkpt>
      <trkpt lat="44.73159" lon="6.8156">
        <ele>2185.2305</ele>
        <time>2013-01-01T13:39:26Z</time>
      </trkpt>
      <trkpt lat="44.73171" lon="6.81581">
        <ele>2175.923</ele>
        <time>2013-01-01T13:39:40Z</time>
      </trkpt>
      <trkpt lat="44.73178" lon="6.81604">
        <ele>2172.2583</ele>
        <time>2013-01-01T13:39:55Z</time>
      </trkpt>
      <trkpt lat="44.7318" lon="6.8163">
        <ele>2172.8599</ele>
        <time>2013-01-01T13:40:13Z</time>
      </trkpt>
      <trkpt lat="44.73182" lon="6.81656">
        <ele>2164.1282</ele>
        <time>2013-01-01T13:40:35Z</time>
      </trkpt>
      <trkpt lat="44.73182" lon="6.81682">
        <ele>2160.377</ele>
        <time>2013-01-01T13:40:52Z</time>
      </trkpt>
      <trkpt lat="44.73194" lon="6.81703">
        <ele>2158.6814</ele>
        <time>2013-01-01T13:41:08Z</time>
      </trkpt>
      <trkpt lat="44.73201" lon="6.81726">
        <ele>2155.7927</ele>
        <time>2013-01-01T13:41:27Z</time>
      </trkpt>
      <trkpt lat="44.73207" lon="6.81751">
        <ele>2154.6702</ele>
        <time>2013-01-01T13:41:41Z</time>
      </trkpt>
      <trkpt lat="44.7321" lon="6.81777">
        <ele>2149.4658</ele>
        <time>2013-01-01T13:42:01Z</time>
      </trkpt>
      <trkpt lat="44.7321" lon="6.81803">
        <ele>2140.5054</ele>
        <time>2013-01-01T13:42:18Z</time>
      </trkpt>
      <trkpt lat="44.73219" lon="6.81826">
        <ele>2139.333</ele>
        <time>2013-01-01T13:42:37Z</time>
      </trkpt>
      <trkpt lat="44.73201" lon="6.81835">
        <ele>2130.5386</ele>
        <time>2013-01-01T13:42:56Z</time>
      </trkpt>
      <trkpt lat="44.73213" lon="6.81855">
        <ele>2126.6467</ele>
        <time>2013-01-01T13:43:41Z</time>
      </trkpt>
      <trkpt lat="44.73231" lon="6.81863">
        <ele>2115.2976</ele>
        <time>2013-01-01T13:43:59Z</time>
      </trkpt>
      <trkpt lat="44.73249" lon="6.8187">
        <ele>2110.8333</ele>
        <time>2013-01-01T13:44:22Z</time>
      </trkpt>
      <trkpt lat="44.73266" lon="6.81881">
        <ele>2095.327</ele>
        <time>2013-01-01T13:44:39Z</time>
      </trkpt>
      <trkpt lat="44.7328" lon="6.81897">
        <ele>2103.544</ele>
        <time>2013-01-01T13:44:53Z</time>
      </trkpt>
      <trkpt lat="44.73296" lon="6.81911">
        <ele>2103.3499</ele>
        <time>2013-01-01T13:45:09Z</time>
      </trkpt>
      <trkpt lat="44.73312" lon="6.81925">
        <ele>2092.581</ele>
        <time>2013-01-01T13:45:25Z</time>
      </trkpt>
      <trkpt lat="44.73326" lon="6.8194">
        <ele>2086.4863</ele>
        <time>2013-01-01T13:45:41Z</time>
      </trkpt>
      <trkpt lat="44.73343" lon="6.8195">
        <ele>2080.9106</ele>
        <time>2013-01-01T13:45:57Z</time>
      </trkpt>
      <trkpt lat="44.73355" lon="6.81971">
        <ele>2077.7332</ele>
        <time>2013-01-01T13:46:16Z</time>
      </trkpt>
      <trkpt lat="44.73338" lon="6.81984">
        <ele>2076</ele>
        <time>2013-01-01T13:46:55Z</time>
      </trkpt>
      <trkpt lat="44.7332" lon="6.81983">
        <ele>2080.798</ele>
        <time>2013-01-01T13:47:07Z</time>
      </trkpt>
      <trkpt lat="44.73302" lon="6.81991">
        <ele>2082.659</ele>
        <time>2013-01-01T13:47:19Z</time>
      </trkpt>
      <trkpt lat="44.73283" lon="6.81999">
        <ele>2074.376</ele>
        <time>2013-01-01T13:47:33Z</time>
      </trkpt>
      <trkpt lat="44.73266" lon="6.82006">
        <ele>2073.8167</ele>
        <time>2013-01-01T13:47:46Z</time>
      </trkpt>
      <trkpt lat="44.73263" lon="6.82031">
        <ele>2039.0035</ele>
        <time>2013-01-01T13:54:47Z</time>
      </trkpt>
      <trkpt lat="44.73262" lon="6.82057">
        <ele>2038.3497</ele>
        <time>2013-01-01T13:55:03Z</time>
      </trkpt>
      <trkpt lat="44.73261" lon="6.82083">
        <ele>2045.9666</ele>
        <time>2013-01-01T13:55:32Z</time>
      </trkpt>
      <trkpt lat="44.73253" lon="6.82106">
        <ele>2035.6592</ele>
        <time>2013-01-01T13:55:57Z</time>
      </trkpt>
      <trkpt lat="44.73245" lon="6.82128">
        <ele>2034.7004</ele>
        <time>2013-01-01T13:56:15Z</time>
      </trkpt>
      <trkpt lat="44.7323" lon="6.82144">
        <ele>2030.8029</ele>
        <time>2013-01-01T13:56:43Z</time>
      </trkpt>
      <trkpt lat="44.73226" lon="6.82169">
        <ele>2012.1302</ele>
        <time>2013-01-01T13:57:28Z</time>
      </trkpt>
      <trkpt lat="44.73217" lon="6.82192">
        <ele>2000.568</ele>
        <time>2013-01-01T13:57:52Z</time>
      </trkpt>
      <trkpt lat="44.73212" lon="6.82216">
        <ele>1994.5859</ele>
        <time>2013-01-01T13:58:14Z</time>
      </trkpt>
      <trkpt lat="44.73202" lon="6.82239">
        <ele>1994.8636</ele>
        <time>2013-01-01T13:58:32Z</time>
      </trkpt>
      <trkpt lat="44.73199" lon="6.82265">
        <ele>1981.2423</ele>
        <time>2013-01-01T13:58:55Z</time>
      </trkpt>
      <trkpt lat="44.73187" lon="6.82286">
        <ele>1987.19</ele>
        <time>2013-01-01T13:59:16Z</time>
      </trkpt>
      <trkpt lat="44.73177" lon="6.82308">
        <ele>1980.4183</ele>
        <time>2013-01-01T13:59:34Z</time>
      </trkpt>
      <trkpt lat="44.73169" lon="6.82332">
        <ele>1974.4573</ele>
        <time>2013-01-01T14:01:12Z</time>
      </trkpt>
      <trkpt lat="44.73164" lon="6.82357">
        <ele>1963.9904</ele>
        <time>2013-01-01T14:01:31Z</time>
      </trkpt>
      <trkpt lat="44.73166" lon="6.82384">
        <ele>1958.6989</ele>
        <time>2013-01-01T14:01:48Z</time>
      </trkpt>
      <trkpt lat="44.73173" lon="6.82407">
        <ele>1967.2236</ele>
        <time>2013-01-01T14:02:06Z</time>
      </trkpt>
      <trkpt lat="44.73178" lon="6.82432">
        <ele>1962.6742</ele>
        <time>2013-01-01T14:02:27Z</time>
      </trkpt>
      <trkpt lat="44.7318" lon="6.82458">
        <ele>1955.8597</ele>
        <time>2013-01-01T14:02:51Z</time>
      </trkpt>
      <trkpt lat="44.73194" lon="6.82476">
        <ele>1949.4476</ele>
        <time>2013-01-01T14:03:11Z</time>
      </trkpt>
      <trkpt lat="44.73203" lon="6.82499">
        <ele>1946.6412</ele>
        <time>2013-01-01T14:03:37Z</time>
      </trkpt>
      <trkpt lat="44.73209" lon="6.82524">
        <ele>1942.0162</ele>
        <time>2013-01-01T14:03:56Z</time>
      </trkpt>
      <trkpt lat="44.73225" lon="6.82534">
        <ele>1937.4233</ele>
        <time>2013-01-01T14:04:43Z</time>
      </trkpt>
      <trkpt lat="44.73232" lon="6.82559">
        <ele>1902.7482</ele>
        <time>2013-01-01T14:06:01Z</time>
      </trkpt>
      <trkpt lat="44.73231" lon="6.82585">
        <ele>1908.1769</ele>
        <time>2013-01-01T14:10:03Z</time>
      </trkpt>
      <trkpt lat="44.73227" lon="6.8261">
        <ele>1893.5183</ele>
        <time>2013-01-01T14:10:22Z</time>
      </trkpt>
      <trkpt lat="44.73236" lon="6.82633">
        <ele>1900.9232</ele>
        <time>2013-01-01T14:10:50Z</time>
      </trkpt>
      <trkpt lat="44.7324" lon="6.82659">
        <ele>1888.9714</ele>
        <time>2013-01-01T14:11:20Z</time>
      </trkpt>
      <trkpt lat="44.73258" lon="6.82668">
        <ele>1887.5522</ele>
        <time>2013-01-01T14:11:38Z</time>
      </trkpt>
      <trkpt lat="44.73266" lon="6.82691">
        <ele>1883.7577</ele>
        <time>2013-01-01T14:11:54Z</time>
      </trkpt>
      <trkpt lat="44.7327" lon="6.82716">
        <ele>1881.5315</ele>
        <time>2013-01-01T14:12:11Z</time>
      </trkpt>
      <trkpt lat="44.73273" lon="6.82741">
        <ele>1865.8013</ele>
        <time>2013-01-01T14:12:36Z</time>
      </trkpt>
      <trkpt lat="44.73255" lon="6.82737">
        <ele>1863.3494</ele>
        <time>2013-01-01T14:13:30Z</time>
      </trkpt>
      <trkpt lat="44.73239" lon="6.82723">
        <ele>1862.0635</ele>
        <time>2013-01-01T14:13:46Z</time>
      </trkpt>
      <trkpt lat="44.7324" lon="6.8275">
        <ele>1860.3069</ele>
        <time>2013-01-01T14:14:02Z</time>
      </trkpt>
      <trkpt lat="44.73253" lon="6.82772">
        <ele>1856.8442</ele>
        <time>2013-01-01T14:14:13Z</time>
      </trkpt>
      <trkpt lat="44.73262" lon="6.82795">
        <ele>1859.0411</ele>
        <time>2013-01-01T14:14:24Z</time>
      </trkpt>
      <trkpt lat="44.73267" lon="6.82819">
        <ele>1850.0873</ele>
        <time>2013-01-01T14:14:36Z</time>
      </trkpt>
      <trkpt lat="44.73262" lon="6.82844">
        <ele>1838.7793</ele>
        <time>2013-01-01T14:16:51Z</time>
      </trkpt>
      <trkpt lat="44.73273" lon="6.82865">
        <ele>1831.9791</ele>
        <time>2013-01-01T14:17:09Z</time>
      </trkpt>
      <trkpt lat="44.73274" lon="6.82891">
        <ele>1843.0037</ele>
        <time>2013-01-01T14:17:37Z</time>
      </trkpt>
      <trkpt lat="44.73286" lon="6.82913">
        <ele>1838.7509</ele>
        <time>2013-01-01T14:17:50Z</time>
      </trkpt>
      <trkpt lat="44.73299" lon="6.82931">
        <ele>1820.9293</ele>
        <time>2013-01-01T14:18:10Z</time>
      </trkpt>
      <trkpt lat="44.73311" lon="6.82951">
        <ele>1823.0778</ele>
        <time>2013-01-01T14:18:27Z</time>
      </trkpt>
      <trkpt lat="44.73312" lon="6.82977">
        <ele>1812.5994</ele>
        <time>2013-01-01T14:18:53Z</time>
      </trkpt>
      <trkpt lat="44.73317" lon="6.83003">
        <ele>1808.1738</ele>
        <time>2013-01-01T14:19:18Z</time>
      </trkpt>
      <trkpt lat="44.73315" lon="6.83029">
        <ele>1797.1411</ele>
        <time>2013-01-01T14:19:54Z</time>
      </trkpt>
      <trkpt lat="44.73331" lon="6.83043">
        <ele>1781.8616</ele>
        <time>2013-01-01T14:21:33Z</time>
      </trkpt>
      <trkpt lat="44.7335" lon="6.83045">
        <ele>1785.4272</ele>
        <time>2013-01-01T14:22:10Z</time>
      </trkpt>
      <trkpt lat="44.73369" lon="6.83048">
        <ele>1781.862</ele>
        <time>2013-01-01T14:22:27Z</time>
      </trkpt>
      <trkpt lat="44.73385" lon="6.83059">
        <ele>1770.8116</ele>
        <time>2013-01-01T14:23:10Z</time>
      </trkpt>
      <trkpt lat="44.73399" lon="6.83076">
        <ele>1765.6428</ele>
        <time>2013-01-01T14:23:25Z</time>
      </trkpt>
      <trkpt lat="44.73414" lon="6.8309">
        <ele>1759.1531</ele>
        <time>2013-01-01T14:23:37Z</time>
      </trkpt>
      <trkpt lat="44.73429" lon="6.83106">
        <ele>1754.9586</ele>
        <time>2013-01-01T14:23:52Z</time>
      </trkpt>
      <trkpt lat="44.73446" lon="6.83121">
        <ele>1750.8046</ele>
        <time>2013-01-01T14:24:07Z</time>
      </trkpt>
      <trkpt lat="44.7346" lon="6.83137">
        <ele>1745.1322</ele>
        <time>2013-01-01T14:24:21Z</time>
      </trkpt>
      <trkpt lat="44.73472" lon="6.83155">
        <ele>1739.3881</ele>
        <time>2013-01-01T14:24:50Z</time>
      </trkpt>
      <trkpt lat="44.7348" lon="6.83179">
        <ele>1736.0996</ele>
        <time>2013-01-01T14:25:06Z</time>
      </trkpt>
      <trkpt lat="44.73465" lon="6.83193">
        <ele>1730.0918</ele>
        <time>2013-01-01T14:27:39Z</time>
      </trkpt>
      <trkpt lat="44.73446" lon="6.83192">
        <ele>1729.2623</ele>
        <time>2013-01-01T14:28:03Z</time>
      </trkpt>
      <trkpt lat="44.73428" lon="6.83191">
        <ele>1739.8455</ele>
        <time>2013-01-01T14:28:19Z</time>
      </trkpt>
      <trkpt lat="44.73409" lon="6.83189">
        <ele>1739.1343</ele>
        <time>2013-01-01T14:28:37Z</time>
      </trkpt>
      <trkpt lat="44.73391" lon="6.83183">
        <ele>1738.4751</ele>
        <time>2013-01-01T14:29:02Z</time>
      </trkpt>
      <trkpt lat="44.73374" lon="6.83175">
        <ele>1752.0092</ele>
        <time>2013-01-01T14:29:22Z</time>
      </trkpt>
      <trkpt lat="44.73359" lon="6.8316">
        <ele>1751.0348</ele>
        <time>2013-01-01T14:29:53Z</time>
      </trkpt>
      <trkpt lat="44.73344" lon="6.83176">
        <ele>1749.0769</ele>
        <time>2013-01-01T14:30:31Z</time>
      </trkpt>
      <trkpt lat="44.73348" lon="6.83201">
        <ele>1752.4781</ele>
        <time>2013-01-01T14:30:57Z</time>
      </trkpt>
      <trkpt lat="44.73349" lon="6.83227">
        <ele>1751.6482</ele>
        <time>2013-01-01T14:31:18Z</time>
      </trkpt>
      <trkpt lat="44.73339" lon="6.83247">
        <ele>1749.4305</ele>
        <time>2013-01-01T14:31:39Z</time>
      </trkpt>
      <trkpt lat="44.73325" lon="6.83266">
        <ele>1763.0808</ele>
        <time>2013-01-01T14:32:37Z</time>
      </trkpt>
      <trkpt lat="44.73309" lon="6.83278">
        <ele>1752.1873</ele>
        <time>2013-01-01T14:32:59Z</time>
      </trkpt>
      <trkpt lat="44.73291" lon="6.83286">
        <ele>1744.6848</ele>
        <time>2013-01-01T14:33:16Z</time>
      </trkpt>
      <trkpt lat="44.73274" lon="6.83295">
        <ele>1751.5134</ele>
        <time>2013-01-01T14:33:33Z</time>
      </trkpt>
      <trkpt lat="44.73257" lon="6.83304">
        <ele>1755.497</ele>
        <time>2013-01-01T14:33:48Z</time>
      </trkpt>
      <trkpt lat="44.73238" lon="6.83313">
        <ele>1754.5789</ele>
        <time>2013-01-01T14:34:04Z</time>
      </trkpt>
      <trkpt lat="44.73222" lon="6.83325">
        <ele>1753.6693</ele>
        <time>2013-01-01T14:34:24Z</time>
      </trkpt>
      <trkpt lat="44.73206" lon="6.83337">
        <ele>1748.5321</ele>
        <time>2013-01-01T14:34:47Z</time>
      </trkpt>
      <trkpt lat="44.73191" lon="6.83353">
        <ele>1748.1122</ele>
        <time>2013-01-01T14:35:09Z</time>
      </trkpt>
      <trkpt lat="44.73178" lon="6.83372">
        <ele>1747.373</ele>
        <time>2013-01-01T14:35:32Z</time>
      </trkpt>
      <trkpt lat="44.73165" lon="6.8339">
        <ele>1757.4011</ele>
        <time>2013-01-01T14:35:48Z</time>
      </trkpt>
      <trkpt lat="44.73151" lon="6.83407">
        <ele>1749.6703</ele>
        <time>2013-01-01T14:36:08Z</time>
      </trkpt>
      <trkpt lat="44.73134" lon="6.83416">
        <ele>1758.6935</ele>
        <time>2013-01-01T14:36:32Z</time>
      </trkpt>
      <trkpt lat="44.73119" lon="6.8343">
        <ele>1758.4629</ele>
        <time>2013-01-01T14:36:51Z</time>
      </trkpt>
      <trkpt lat="44.73104" lon="6.83444">
        <ele>1763.916</ele>
        <time>2013-01-01T14:37:19Z</time>
      </trkpt>
      <trkpt lat="44.73089" lon="6.8346">
        <ele>1776.5381</ele>
        <time>2013-01-01T14:40:33Z</time>
      </trkpt>
      <trkpt lat="44.73077" lon="6.8348">
        <ele>1771.1772</ele>
        <time>2013-01-01T14:40:52Z</time>
      </trkpt>
      <trkpt lat="44.73066" lon="6.835">
        <ele>1763.9758</ele>
        <time>2013-01-01T14:41:17Z</time>
      </trkpt>
      <trkpt lat="44.73054" lon="6.83519">
        <ele>1766.2217</ele>
        <time>2013-01-01T14:41:40Z</time>
      </trkpt>
      <trkpt lat="44.73039" lon="6.83534">
        <ele>1777.8961</ele>
        <time>2013-01-01T14:42:00Z</time>
      </trkpt>
      <trkpt lat="44.73028" lon="6.83556">
        <ele>1773.3596</ele>
        <time>2013-01-01T14:42:27Z</time>
      </trkpt>
      <trkpt lat="44.73019" lon="6.83579">
        <ele>1780.47</ele>
        <time>2013-01-01T14:42:46Z</time>
      </trkpt>
      <trkpt lat="44.73005" lon="6.83594">
        <ele>1775.9631</ele>
        <time>2013-01-01T14:43:04Z</time>
      </trkpt>
      <trkpt lat="44.72988" lon="6.83604">
        <ele>1783.206</ele>
        <time>2013-01-01T14:43:25Z</time>
      </trkpt>
      <trkpt lat="44.72974" lon="6.83621">
        <ele>1786.36</ele>
        <time>2013-01-01T14:43:44Z</time>
      </trkpt>
      <trkpt lat="44.7297" lon="6.83648">
        <ele>1784.3453</ele>
        <time>2013-01-01T14:44:02Z</time>
      </trkpt>
      <trkpt lat="44.72968" lon="6.83674">
        <ele>1782.1804</ele>
        <time>2013-01-01T14:44:19Z</time>
      </trkpt>
      <trkpt lat="44.72966" lon="6.83701">
        <ele>1779.4388</ele>
        <time>2013-01-01T14:44:35Z</time>
      </trkpt>
      <trkpt lat="44.72955" lon="6.83721">
        <ele>1785.299</ele>
        <time>2013-01-01T14:44:51Z</time>
      </trkpt>
      <trkpt lat="44.72941" lon="6.83738">
        <ele>1780.6184</ele>
        <time>2013-01-01T14:45:07Z</time>
      </trkpt>
      <trkpt lat="44.72927" lon="6.83756">
        <ele>1779.3851</ele>
        <time>2013-01-01T14:45:32Z</time>
      </trkpt>
      <trkpt lat="44.7292" lon="6.8378">
        <ele>1776.0479</ele>
        <time>2013-01-01T14:45:53Z</time>
      </trkpt>
      <trkpt lat="44.72911" lon="6.83803">
        <ele>1772.1389</ele>
        <time>2013-01-01T14:46:13Z</time>
      </trkpt>
      <trkpt lat="44.72894" lon="6.83814">
        <ele>1783.7155</ele>
        <time>2013-01-01T14:46:34Z</time>
      </trkpt>
      <trkpt lat="44.72876" lon="6.83817">
        <ele>1784.9738</ele>
        <time>2013-01-01T14:46:49Z</time>
      </trkpt>
      <trkpt lat="44.72859" lon="6.83828">
        <ele>1780.106</ele>
        <time>2013-01-01T14:47:07Z</time>
      </trkpt>
      <trkpt lat="44.72851" lon="6.83851">
        <ele>1775.5334</ele>
        <time>2013-01-01T14:47:25Z</time>
      </trkpt>
      <trkpt lat="44.72845" lon="6.83876">
        <ele>1770.7124</ele>
        <time>2013-01-01T14:47:43Z</time>
      </trkpt>
      <trkpt lat="44.72833" lon="6.83894">
        <ele>1774.4357</ele>
        <time>2013-01-01T14:48:05Z</time>
      </trkpt>
      <trkpt lat="44.72822" lon="6.83915">
        <ele>1773.2394</ele>
        <time>2013-01-01T14:48:39Z</time>
      </trkpt>
      <trkpt lat="44.72807" lon="6.8393">
        <ele>1769.0765</ele>
        <time>2013-01-01T14:49:00Z</time>
      </trkpt>
      <trkpt lat="44.72792" lon="6.83945">
        <ele>1763.645</ele>
        <time>2013-01-01T14:49:21Z</time>
      </trkpt>
      <trkpt lat="44.72775" lon="6.8396">
        <ele>1771.1133</ele>
        <time>2013-01-01T14:49:40Z</time>
      </trkpt>
      <trkpt lat="44.72764" lon="6.8398">
        <ele>1775.3052</ele>
        <time>2013-01-01T14:50:06Z</time>
      </trkpt>
      <trkpt lat="44.72748" lon="6.83993">
        <ele>1772.6547</ele>
        <time>2013-01-01T14:50:26Z</time>
      </trkpt>
      <trkpt lat="44.72742" lon="6.84017">
        <ele>1769.3053</ele>
        <time>2013-01-01T14:50:44Z</time>
      </trkpt>
      <trkpt lat="44.72737" lon="6.84043">
        <ele>1777.5354</ele>
        <time>2013-01-01T14:51:00Z</time>
      </trkpt>
      <trkpt lat="44.72724" lon="6.84062">
        <ele>1776.4648</ele>
        <time>2013-01-01T14:51:32Z</time>
      </trkpt>
      <trkpt lat="44.72715" lon="6.84085">
        <ele>1773.4684</ele>
        <time>2013-01-01T14:51:52Z</time>
      </trkpt>
      <trkpt lat="44.72723" lon="6.84109">
        <ele>1756.6278</ele>
        <time>2013-01-01T14:52:30Z</time>
      </trkpt>
      <trkpt lat="44.72728" lon="6.84134">
        <ele>1759.9535</ele>
        <time>2013-01-01T14:52:52Z</time>
      </trkpt>
      <trkpt lat="44.72723" lon="6.84159">
        <ele>1761.2379</ele>
        <time>2013-01-01T14:53:06Z</time>
      </trkpt>
      <trkpt lat="44.72726" lon="6.84186">
        <ele>1760.9071</ele>
        <time>2013-01-01T14:53:20Z</time>
      </trkpt>
      <trkpt lat="44.72731" lon="6.84211">
        <ele>1759.6139</ele>
        <time>2013-01-01T14:53:35Z</time>
      </trkpt>
      <trkpt lat="44.72747" lon="6.84225">
        <ele>1770.8422</ele>
        <time>2013-01-01T14:53:53Z</time>
      </trkpt>
      <trkpt lat="44.72765" lon="6.84232">
        <ele>1761.7368</ele>
        <time>2013-01-01T14:54:12Z</time>
      </trkpt>
      <trkpt lat="44.72784" lon="6.84233">
        <ele>1763.8761</ele>
        <time>2013-01-01T14:54:29Z</time>
      </trkpt>
      <trkpt lat="44.72802" lon="6.84229">
        <ele>1754.6124</ele>
        <time>2013-01-01T14:54:47Z</time>
      </trkpt>
      <trkpt lat="44.7282" lon="6.84228">
        <ele>1766.0608</ele>
        <time>2013-01-01T14:55:17Z</time>
      </trkpt>
      <trkpt lat="44.72838" lon="6.8422">
        <ele>1766.457</ele>
        <time>2013-01-01T14:55:34Z</time>
      </trkpt>
      <trkpt lat="44.72856" lon="6.84217">
        <ele>1766.215</ele>
        <time>2013-01-01T14:55:53Z</time>
      </trkpt>
      <trkpt lat="44.72875" lon="6.84214">
        <ele>1765.4391</ele>
        <time>2013-01-01T14:56:23Z</time>
      </trkpt>
      <trkpt lat="44.72893" lon="6.84218">
        <ele>1772.0864</ele>
        <time>2013-01-01T14:56:43Z</time>
      </trkpt>
      <trkpt lat="44.7291" lon="6.84228">
        <ele>1772.8796</ele>
        <time>2013-01-01T14:57:07Z</time>
      </trkpt>
      <trkpt lat="44.72928" lon="6.84237">
        <ele>1779.6307</ele>
        <time>2013-01-01T14:57:38Z</time>
      </trkpt>
      <trkpt lat="44.72946" lon="6.84245">
        <ele>1784.251</ele>
        <time>2013-01-01T14:57:59Z</time>
      </trkpt>
      <trkpt lat="44.72961" lon="6.84259">
        <ele>1791.3657</ele>
        <time>2013-01-01T14:59:08Z</time>
      </trkpt>
      <trkpt lat="44.72953" lon="6.84282">
        <ele>1794.6328</ele>
        <time>2013-01-01T15:00:55Z</time>
      </trkpt>
      <trkpt lat="44.72938" lon="6.84296">
        <ele>1794.4388</ele>
        <time>2013-01-01T15:01:09Z</time>
      </trkpt>
      <trkpt lat="44.72924" lon="6.84313">
        <ele>1792.0018</ele>
        <time>2013-01-01T15:01:24Z</time>
      </trkpt>
      <trkpt lat="44.7291" lon="6.84328">
        <ele>1791.6317</ele>
        <time>2013-01-01T15:01:41Z</time>
      </trkpt>
      <trkpt lat="44.72926" lon="6.8431">
        <ele>1796.7036</ele>
        <time>2013-01-01T15:07:16Z</time>
      </trkpt>
      <trkpt lat="44.7294" lon="6.84291">
        <ele>1793.3281</ele>
        <time>2013-01-01T15:07:19Z</time>
      </trkpt>
      <trkpt lat="44.72958" lon="6.84269">
        <ele>1790.9666</ele>
        <time>2013-01-01T15:07:22Z</time>
      </trkpt>
      <trkpt lat="44.72976" lon="6.84248">
        <ele>1787.9858</ele>
        <time>2013-01-01T15:07:25Z</time>
      </trkpt>
      <trkpt lat="44.72994" lon="6.84228">
        <ele>1786.0721</ele>
        <time>2013-01-01T15:07:28Z</time>
      </trkpt>
      <trkpt lat="44.73013" lon="6.8421">
        <ele>1783.6085</ele>
        <time>2013-01-01T15:07:31Z</time>
      </trkpt>
      <trkpt lat="44.7303" lon="6.84191">
        <ele>1780.9442</ele>
        <time>2013-01-01T15:07:34Z</time>
      </trkpt>
      <trkpt lat="44.73043" lon="6.84169">
        <ele>1779.0233</ele>
        <time>2013-01-01T15:07:37Z</time>
      </trkpt>
      <trkpt lat="44.73054" lon="6.84144">
        <ele>1775.2911</ele>
        <time>2013-01-01T15:07:40Z</time>
      </trkpt>
      <trkpt lat="44.73063" lon="6.84117">
        <ele>1772.2322</ele>
        <time>2013-01-01T15:07:43Z</time>
      </trkpt>
      <trkpt lat="44.73072" lon="6.84088">
        <ele>1769.9885</ele>
        <time>2013-01-01T15:07:46Z</time>
      </trkpt>
      <trkpt lat="44.73082" lon="6.84063">
        <ele>1769.4171</ele>
        <time>2013-01-01T15:07:49Z</time>
      </trkpt>
      <trkpt lat="44.73096" lon="6.84039">
        <ele>1768.1984</ele>
        <time>2013-01-01T15:07:53Z</time>
      </trkpt>
      <trkpt lat="44.73115" lon="6.8402">
        <ele>1765.8635</ele>
        <time>2013-01-01T15:07:57Z</time>
      </trkpt>
      <trkpt lat="44.73134" lon="6.84003">
        <ele>1762.6143</ele>
        <time>2013-01-01T15:08:00Z</time>
      </trkpt>
      <trkpt lat="44.73155" lon="6.83985">
        <ele>1761.7904</ele>
        <time>2013-01-01T15:08:03Z</time>
      </trkpt>
      <trkpt lat="44.73178" lon="6.83965">
        <ele>1764.3491</ele>
        <time>2013-01-01T15:08:06Z</time>
      </trkpt>
      <trkpt lat="44.73195" lon="6.83948">
        <ele>1768.3839</ele>
        <time>2013-01-01T15:08:08Z</time>
      </trkpt>
      <trkpt lat="44.73213" lon="6.83932">
        <ele>1771.716</ele>
        <time>2013-01-01T15:08:10Z</time>
      </trkpt>
      <trkpt lat="44.7323" lon="6.83917">
        <ele>1774.0902</ele>
        <time>2013-01-01T15:08:12Z</time>
      </trkpt>
      <trkpt lat="44.73245" lon="6.83904">
        <ele>1775.6133</ele>
        <time>2013-01-01T15:08:14Z</time>
      </trkpt>
      <trkpt lat="44.73262" lon="6.83889">
        <ele>1775.595</ele>
        <time>2013-01-01T15:08:16Z</time>
      </trkpt>
      <trkpt lat="44.73282" lon="6.83872">
        <ele>1775.9385</ele>
        <time>2013-01-01T15:08:19Z</time>
      </trkpt>
      <trkpt lat="44.733" lon="6.83854">
        <ele>1774.7084</ele>
        <time>2013-01-01T15:08:22Z</time>
      </trkpt>
    </trkseg>
  </trk>
</gpx>